Time;durP1;ratioP1;P1;durP2;ratioP2;P2;SDS_P1;SDS_P2;PMS_P1;PMS_P2;Temp;Humidity;BMP_temperature;BMP_pressure;BME280_temperature;BME280_humidity;BME280_pressure;Samples;Min_cycle;Max_cycle;Signal;HPM_P1;HPM_P2
2023/08/21 00:01:22;;;;;;;3.80;2.90;;;;;;;;;;5042098;28;20488;-80
2023/08/21 00:03:49;;;;;;;5.20;3.60;;;;;;;;;;5046713;28;20479;-81
2023/08/21 00:06:15;;;;;;;6.50;3.03;;;;;;;;;;5045936;28;20451;-80
2023/08/21 00:08:41;;;;;;;7.70;4.30;;;;;;;;;;5043964;28;20463;-80
2023/08/21 00:11:09;;;;;;;4.80;3.43;;;;;;;;;;5041339;28;20436;-80
2023/08/21 00:13:36;;;;;;;4.10;3.10;;;;;;;;;;5042404;28;20995;-81
2023/08/21 00:16:02;;;;;;;7.23;3.70;;;;;;;;;;5045760;28;21406;-80
2023/08/21 00:18:28;;;;;;;7.50;3.30;;;;;;;;;;5042991;28;20465;-80
2023/08/21 00:20:55;;;;;;;5.83;3.90;;;;;;;;;;5044266;28;20507;-81
2023/08/21 00:23:21;;;;;;;11.73;4.50;;;;;;;;;;5044796;28;20468;-81
2023/08/21 00:25:48;;;;;;;7.47;4.20;;;;;;;;;;5043321;28;20473;-80
2023/08/21 00:28:15;;;;;;;10.90;4.03;;;;;;;;;;5044221;28;20444;-80
2023/08/21 00:30:42;;;;;;;7.80;4.20;;;;;;;;;;5044627;28;20441;-80
2023/08/21 00:33:09;;;;;;;4.37;3.37;;;;;;;;;;5048703;28;20523;-81
2023/08/21 00:35:36;;;;;;;6.97;3.60;;;;;;;;;;5046301;28;20443;-80
2023/08/21 00:38:02;;;;;;;9.93;3.93;;;;;;;;;;5046029;28;20459;-81
2023/08/21 00:40:28;;;;;;;3.43;2.53;;;;;;;;;;5042425;28;21310;-80
2023/08/21 00:42:56;;;;;;;5.23;4.07;;;;;;;;;;5043108;28;20494;-80
2023/08/21 00:45:23;;;;;;;7.00;4.50;;;;;;;;;;5042740;28;20542;-81
2023/08/21 00:47:50;;;;;;;6.07;3.60;;;;;;;;;;5043027;28;20460;-81
2023/08/21 00:50:17;;;;;;;12.63;4.13;;;;;;;;;;5043114;28;21020;-80
2023/08/21 00:52:45;;;;;;;7.27;4.23;;;;;;;;;;5044874;28;20479;-80
2023/08/21 00:55:13;;;;;;;6.83;4.40;;;;;;;;;;5039383;28;20473;-80
2023/08/21 00:57:40;;;;;;;6.70;4.70;;;;;;;;;;5045195;28;20494;-80
2023/08/21 01:00:10;;;;;;;7.30;4.03;;;;;;;;;;5043953;28;20863;-80
2023/08/21 01:02:37;;;;;;;7.20;3.77;;;;;;;;;;5043594;28;20465;-80
2023/08/21 01:05:05;;;;;;;8.33;3.63;;;;;;;;;;5044856;28;20484;-80
2023/08/21 01:07:32;;;;;;;10.97;3.37;;;;;;;;;;5043913;28;20488;-80
2023/08/21 01:09:59;;;;;;;8.83;3.00;;;;;;;;;;5045380;28;20478;-80
2023/08/21 01:12:30;;;;;;;8.70;3.80;;;;;;;;;;5045716;28;20480;-80
2023/08/21 01:15:00;;;;;;;4.80;3.87;;;;;;;;;;5042004;28;20472;-80
2023/08/21 01:17:27;;;;;;;6.90;3.57;;;;;;;;;;5047058;28;20467;-80
2023/08/21 01:19:55;;;;;;;6.27;3.97;;;;;;;;;;5045620;28;20468;-80
2023/08/21 01:22:21;;;;;;;7.07;3.93;;;;;;;;;;5046527;28;20862;-80
2023/08/21 01:24:49;;;;;;;33.50;5.20;;;;;;;;;;5046362;28;20472;-81
2023/08/21 01:27:16;;;;;;;8.03;4.30;;;;;;;;;;5047791;28;20457;-80
2023/08/21 01:29:42;;;;;;;4.53;3.37;;;;;;;;;;5045872;28;20849;-80
2023/08/21 01:32:11;;;;;;;5.00;3.90;;;;;;;;;;5042596;28;20488;-80
2023/08/21 01:34:38;;;;;;;7.63;4.00;;;;;;;;;;5046315;28;21037;-80
2023/08/21 01:37:05;;;;;;;13.30;4.33;;;;;;;;;;5044928;28;20458;-80
2023/08/21 01:39:31;;;;;;;11.13;3.87;;;;;;;;;;5044166;28;20547;-80
2023/08/21 01:41:59;;;;;;;5.60;4.20;;;;;;;;;;5044023;28;20487;-80
2023/08/21 01:44:27;;;;;;;8.50;4.20;;;;;;;;;;5045658;28;20512;-80
2023/08/21 01:46:53;;;;;;;7.87;4.60;;;;;;;;;;5041642;28;20454;-80
2023/08/21 01:49:21;;;;;;;10.77;4.90;;;;;;;;;;5044644;28;20502;-80
2023/08/21 01:51:47;;;;;;;7.63;4.33;;;;;;;;;;5041414;28;20488;-80
2023/08/21 01:54:14;;;;;;;8.40;3.90;;;;;;;;;;5042750;28;20471;-80
2023/08/21 01:56:40;;;;;;;6.63;3.83;;;;;;;;;;5046786;28;20460;-80
2023/08/21 01:59:08;;;;;;;9.67;4.87;;;;;;;;;;5049120;28;20495;-80
2023/08/21 02:01:36;;;;;;;5.23;3.87;;;;;;;;;;5045459;28;20506;-80
2023/08/21 02:04:02;;;;;;;7.80;3.90;;;;;;;;;;5046472;28;21005;-80
2023/08/21 02:06:29;;;;;;;6.60;4.10;;;;;;;;;;5042526;28;20441;-80
2023/08/21 02:08:55;;;;;;;8.03;3.63;;;;;;;;;;5047058;28;20471;-80
2023/08/21 02:11:21;;;;;;;6.43;3.90;;;;;;;;;;5047218;28;20446;-80
2023/08/21 02:13:48;;;;;;;10.73;4.67;;;;;;;;;;5046605;28;20876;-80
2023/08/21 02:16:15;;;;;;;7.30;4.80;;;;;;;;;;5045213;28;20430;-80
2023/08/21 02:18:42;;;;;;;7.50;4.00;;;;;;;;;;5045935;28;20510;-80
2023/08/21 02:21:08;;;;;;;7.53;5.00;;;;;;;;;;5045277;28;20449;-80
2023/08/21 02:23:35;;;;;;;7.20;4.33;;;;;;;;;;5047908;28;20847;-81
2023/08/21 02:26:01;;;;;;;6.67;3.90;;;;;;;;;;5046734;28;20450;-80
2023/08/21 02:28:29;;;;;;;6.10;3.93;;;;;;;;;;5047125;28;20435;-80
2023/08/21 02:30:55;;;;;;;9.13;5.50;;;;;;;;;;5044516;28;20445;-80
2023/08/21 02:33:23;;;;;;;12.43;7.10;;;;;;;;;;5046093;28;21837;-80
2023/08/21 02:35:49;;;;;;;10.33;6.70;;;;;;;;;;5046876;28;20829;-80
2023/08/21 02:38:15;;;;;;;10.30;6.37;;;;;;;;;;5046255;28;20543;-80
2023/08/21 02:40:42;;;;;;;17.30;10.90;;;;;;;;;;5045913;28;20462;-80
2023/08/21 02:43:08;;;;;;;19.73;8.10;;;;;;;;;;5046694;28;20470;-80
2023/08/21 02:45:35;;;;;;;16.60;7.50;;;;;;;;;;5046689;28;20434;-80
2023/08/21 02:48:01;;;;;;;27.30;12.63;;;;;;;;;;5046846;28;20431;-80
2023/08/21 02:50:29;;;;;;;13.10;9.80;;;;;;;;;;5048010;28;20477;-80
2023/08/21 02:52:56;;;;;;;25.10;15.67;;;;;;;;;;5049519;28;20472;-81
2023/08/21 02:55:22;;;;;;;22.80;13.43;;;;;;;;;;5042432;28;20465;-80
2023/08/21 02:57:48;;;;;;;26.73;15.80;;;;;;;;;;5048341;28;20441;-80
2023/08/21 03:00:15;;;;;;;23.70;14.83;;;;;;;;;;5045869;28;20838;-81
2023/08/21 03:02:43;;;;;;;17.30;12.93;;;;;;;;;;5050627;28;20462;-80
2023/08/21 03:05:10;;;;;;;23.83;13.03;;;;;;;;;;5045206;28;21085;-80
2023/08/21 03:07:38;;;;;;;20.70;14.87;;;;;;;;;;5046748;28;20444;-81
2023/08/21 03:10:05;;;;;;;18.23;12.70;;;;;;;;;;5044085;28;20454;-80
2023/08/21 03:12:32;;;;;;;18.90;11.60;;;;;;;;;;5048182;28;20479;-80
2023/08/21 03:14:58;;;;;;;17.43;14.43;;;;;;;;;;5044734;28;20470;-80
2023/08/21 03:17:25;;;;;;;13.53;11.77;;;;;;;;;;5049096;28;20460;-80
2023/08/21 03:19:51;;;;;;;16.90;12.57;;;;;;;;;;5043777;28;20465;-80
2023/08/21 03:22:17;;;;;;;15.10;12.53;;;;;;;;;;5043731;28;20483;-80
2023/08/21 03:24:45;;;;;;;13.60;11.40;;;;;;;;;;5042561;28;20480;-80
2023/08/21 03:27:11;;;;;;;14.80;12.93;;;;;;;;;;5045193;28;20809;-80
2023/08/21 03:29:38;;;;;;;11.33;10.13;;;;;;;;;;5044453;28;20514;-80
2023/08/21 03:32:04;;;;;;;13.40;11.20;;;;;;;;;;5044759;28;20475;-80
2023/08/21 03:34:31;;;;;;;11.00;9.70;;;;;;;;;;5047347;28;20471;-80
2023/08/21 03:36:57;;;;;;;10.10;9.10;;;;;;;;;;5046553;28;20487;-80
2023/08/21 03:39:23;;;;;;;11.40;9.70;;;;;;;;;;5044301;28;20477;-80
2023/08/21 03:41:51;;;;;;;12.33;11.07;;;;;;;;;;5043891;28;20472;-80
2023/08/21 03:44:17;;;;;;;12.07;9.90;;;;;;;;;;5046398;28;21004;-80
2023/08/21 03:46:44;;;;;;;15.33;9.57;;;;;;;;;;5044380;28;20464;-80
2023/08/21 03:49:10;;;;;;;10.60;9.03;;;;;;;;;;5043784;28;20459;-80
2023/08/21 03:51:37;;;;;;;10.20;8.70;;;;;;;;;;5042606;28;20878;-80
2023/08/21 03:54:03;;;;;;;13.07;9.10;;;;;;;;;;5044483;28;20472;-81
2023/08/21 03:56:29;;;;;;;11.30;9.90;;;;;;;;;;5045094;28;20524;-80
2023/08/21 03:58:57;;;;;;;10.53;9.47;;;;;;;;;;5045110;28;20465;-81
2023/08/21 04:01:24;;;;;;;13.17;8.90;;;;;;;;;;5044971;28;20465;-81
2023/08/21 04:03:50;;;;;;;9.97;8.97;;;;;;;;;;5045074;28;20998;-81
2023/08/21 04:06:17;;;;;;;10.53;9.33;;;;;;;;;;5048571;28;20456;-81
2023/08/21 04:08:43;;;;;;;9.70;8.70;;;;;;;;;;5044161;28;20469;-80
2023/08/21 04:11:10;;;;;;;10.10;8.93;;;;;;;;;;5043059;28;20956;-81
2023/08/21 04:13:36;;;;;;;9.83;8.73;;;;;;;;;;5043584;28;20468;-80
2023/08/21 04:16:04;;;;;;;12.43;8.67;;;;;;;;;;5045422;28;20461;-80
2023/08/21 04:18:31;;;;;;;12.97;10.07;;;;;;;;;;5048377;28;20466;-82
2023/08/21 04:20:57;;;;;;;10.50;8.70;;;;;;;;;;5047356;28;20828;-81
2023/08/21 04:23:23;;;;;;;9.90;8.37;;;;;;;;;;5045430;28;20465;-81
2023/08/21 04:25:49;;;;;;;9.90;7.97;;;;;;;;;;5047031;28;20430;-81
2023/08/21 04:28:16;;;;;;;12.70;9.03;;;;;;;;;;5045766;28;20425;-81
2023/08/21 04:30:42;;;;;;;10.13;8.67;;;;;;;;;;5043490;28;21016;-82
2023/08/21 04:33:10;;;;;;;12.63;9.43;;;;;;;;;;5043353;28;20465;-82
2023/08/21 04:35:37;;;;;;;10.87;9.77;;;;;;;;;;5045364;28;20448;-81
2023/08/21 04:38:04;;;;;;;13.03;10.07;;;;;;;;;;5044091;28;20463;-81
2023/08/21 04:40:30;;;;;;;10.50;9.30;;;;;;;;;;5039304;28;20483;-80
2023/08/21 04:42:56;;;;;;;11.53;9.60;;;;;;;;;;5045000;28;20459;-81
2023/08/21 04:45:23;;;;;;;9.47;8.27;;;;;;;;;;5044012;28;20483;-81
2023/08/21 04:47:49;;;;;;;9.13;8.23;;;;;;;;;;5044360;28;20416;-81
2023/08/21 04:50:17;;;;;;;8.33;7.37;;;;;;;;;;5044090;28;20853;-81
2023/08/21 04:52:43;;;;;;;9.60;8.00;;;;;;;;;;5042892;28;20446;-81
2023/08/21 04:55:09;;;;;;;11.83;8.80;;;;;;;;;;5042563;28;20824;-80
2023/08/21 04:57:36;;;;;;;9.87;7.70;;;;;;;;;;5045442;28;20455;-81
2023/08/21 05:00:03;;;;;;;7.93;7.13;;;;;;;;;;5041105;28;20835;-81
2023/08/21 05:02:30;;;;;;;12.23;8.93;;;;;;;;;;5043314;28;20561;-81
2023/08/21 05:04:56;;;;;;;10.00;7.70;;;;;;;;;;5042332;28;20987;-80
2023/08/21 05:07:24;;;;;;;12.40;9.33;;;;;;;;;;5046505;28;20537;-80
2023/08/21 05:09:50;;;;;;;12.10;9.50;;;;;;;;;;5046073;28;20442;-81
2023/08/21 05:12:17;;;;;;;9.83;8.83;;;;;;;;;;5042609;28;20453;-80
2023/08/21 05:14:43;;;;;;;12.57;9.90;;;;;;;;;;5047345;28;20467;-81
2023/08/21 05:17:09;;;;;;;11.43;9.17;;;;;;;;;;5041917;28;20577;-81
2023/08/21 05:19:36;;;;;;;18.00;10.20;;;;;;;;;;5045545;28;20464;-81
2023/08/21 05:22:02;;;;;;;11.80;9.50;;;;;;;;;;5045530;28;20458;-80
2023/08/21 05:24:30;;;;;;;11.17;8.67;;;;;;;;;;5041964;28;20464;-80
2023/08/21 05:26:56;;;;;;;12.93;11.00;;;;;;;;;;5043266;28;20466;-80
2023/08/21 05:29:23;;;;;;;13.63;11.03;;;;;;;;;;5043687;28;21009;-81
2023/08/21 05:31:50;;;;;;;13.90;10.27;;;;;;;;;;5049597;28;20454;-80
2023/08/21 05:34:17;;;;;;;11.90;9.67;;;;;;;;;;5045366;28;20446;-81
2023/08/21 05:36:43;;;;;;;11.00;9.30;;;;;;;;;;5051671;28;20952;-81
2023/08/21 05:39:10;;;;;;;12.23;9.80;;;;;;;;;;5045954;28;20468;-81
2023/08/21 05:41:37;;;;;;;12.20;10.17;;;;;;;;;;5049850;28;20949;-80
2023/08/21 05:44:05;;;;;;;17.77;11.83;;;;;;;;;;5046518;28;20475;-81
2023/08/21 05:46:31;;;;;;;16.23;9.70;;;;;;;;;;5048098;28;20443;-81
2023/08/21 05:48:58;;;;;;;17.07;10.10;;;;;;;;;;5043831;28;20476;-81
2023/08/21 05:51:25;;;;;;;18.30;11.03;;;;;;;;;;5044352;28;20415;-81
2023/08/21 05:53:52;;;;;;;15.97;10.80;;;;;;;;;;5044007;28;20464;-81
2023/08/21 05:56:18;;;;;;;14.67;12.20;;;;;;;;;;5044376;28;20455;-81
2023/08/21 05:58:46;;;;;;;17.90;12.73;;;;;;;;;;5045607;28;20493;-81
2023/08/21 06:01:12;;;;;;;17.37;12.47;;;;;;;;;;5048598;28;20812;-80
2023/08/21 06:03:39;;;;;;;20.53;12.20;;;;;;;;;;5042413;28;20490;-81
2023/08/21 06:06:05;;;;;;;14.23;11.97;;;;;;;;;;5045745;28;20447;-81
2023/08/21 06:08:33;;;;;;;18.97;12.43;;;;;;;;;;5045621;28;20848;-81
2023/08/21 06:10:59;;;;;;;15.40;11.83;;;;;;;;;;5047044;28;20430;-81
2023/08/21 06:13:26;;;;;;;17.20;13.27;;;;;;;;;;5044601;28;20440;-81
2023/08/21 06:15:53;;;;;;;16.77;12.73;;;;;;;;;;5043667;28;20445;-81
2023/08/21 06:18:20;;;;;;;18.30;14.60;;;;;;;;;;5045833;28;20439;-81
2023/08/21 06:20:46;;;;;;;21.37;15.47;;;;;;;;;;5049513;28;20450;-81
2023/08/21 06:23:13;;;;;;;16.90;13.47;;;;;;;;;;5045516;28;20480;-80
2023/08/21 06:25:40;;;;;;;21.30;16.83;;;;;;;;;;5044296;28;20468;-81
2023/08/21 06:28:07;;;;;;;25.00;18.47;;;;;;;;;;5045882;28;20967;-80
2023/08/21 06:30:33;;;;;;;26.30;18.53;;;;;;;;;;5047409;28;20444;-80
2023/08/21 06:33:01;;;;;;;31.10;20.10;;;;;;;;;;5047255;28;20878;-80
2023/08/21 06:35:27;;;;;;;36.77;21.50;;;;;;;;;;5044563;28;20547;-80
2023/08/21 06:37:54;;;;;;;32.03;19.10;;;;;;;;;;5050165;28;20464;-80
2023/08/21 06:40:21;;;;;;;31.87;21.10;;;;;;;;;;5046645;28;20479;-80
2023/08/21 06:42:49;;;;;;;31.73;18.83;;;;;;;;;;5045323;28;20467;-80
2023/08/21 06:45:15;;;;;;;30.77;18.10;;;;;;;;;;5044629;28;20855;-80
2023/08/21 06:47:42;;;;;;;28.40;19.90;;;;;;;;;;5047564;28;20449;-80
2023/08/21 06:50:10;;;;;;;24.67;17.00;;;;;;;;;;5026757;28;20871;-80
2023/08/21 06:52:36;;;;;;;27.33;18.57;;;;;;;;;;5043966;28;20484;-80
2023/08/21 06:55:03;;;;;;;24.20;16.53;;;;;;;;;;5040596;28;20439;-81
2023/08/21 06:57:29;;;;;;;17.87;13.47;;;;;;;;;;5048029;28;20446;-80
2023/08/21 06:59:56;;;;;;;25.77;12.30;;;;;;;;;;5048300;28;20472;-80
2023/08/21 07:02:22;;;;;;;17.00;12.77;;;;;;;;;;5045416;28;20472;-80
2023/08/21 07:04:50;;;;;;;20.80;12.90;;;;;;;;;;5043745;28;21012;-80
2023/08/21 07:07:18;;;;;;;18.43;10.80;;;;;;;;;;5044552;28;20964;-80
2023/08/21 07:09:44;;;;;;;15.90;10.77;;;;;;;;;;5047387;28;20468;-80
2023/08/21 07:12:10;;;;;;;14.17;10.73;;;;;;;;;;5050198;28;20488;-80
2023/08/21 07:14:37;;;;;;;15.53;10.17;;;;;;;;;;5042499;28;21024;-80
2023/08/21 07:17:03;;;;;;;14.60;9.40;;;;;;;;;;5047127;28;20836;-80
2023/08/21 07:19:29;;;;;;;15.30;8.77;;;;;;;;;;5045356;28;20460;-80
2023/08/21 07:21:56;;;;;;;23.00;10.80;;;;;;;;;;5043480;28;20523;-81
2023/08/21 07:24:23;;;;;;;11.47;7.20;;;;;;;;;;5047603;28;20472;-81
2023/08/21 07:26:50;;;;;;;13.37;5.90;;;;;;;;;;5046447;28;20456;-80
2023/08/21 07:29:16;;;;;;;9.70;6.20;;;;;;;;;;5047193;28;20478;-81
2023/08/21 07:31:43;;;;;;;9.40;5.63;;;;;;;;;;5041711;28;20467;-80
2023/08/21 07:34:09;;;;;;;7.50;5.00;;;;;;;;;;5043869;28;20472;-80
2023/08/21 07:36:35;;;;;;;10.10;5.27;;;;;;;;;;5048182;28;20444;-80
2023/08/21 07:39:02;;;;;;;15.20;5.83;;;;;;;;;;5048057;28;20470;-81
2023/08/21 07:41:30;;;;;;;11.13;6.13;;;;;;;;;;5042934;28;20464;-80
2023/08/21 07:43:56;;;;;;;13.93;6.20;;;;;;;;;;5045248;28;20476;-80
2023/08/21 07:46:23;;;;;;;12.10;5.93;;;;;;;;;;5041745;28;20447;-80
2023/08/21 07:48:50;;;;;;;15.60;7.13;;;;;;;;;;5041729;28;20555;-81
2023/08/21 07:51:16;;;;;;;13.90;6.37;;;;;;;;;;5044932;28;20436;-81
2023/08/21 07:53:43;;;;;;;8.87;5.13;;;;;;;;;;5045205;28;20471;-80
2023/08/21 07:56:09;;;;;;;7.40;3.60;;;;;;;;;;5043140;28;20455;-80
2023/08/21 07:58:37;;;;;;;11.13;4.30;;;;;;;;;;5043922;28;20467;-80
2023/08/21 08:01:04;;;;;;;12.70;4.53;;;;;;;;;;5047683;28;20463;-81
2023/08/21 08:03:30;;;;;;;11.27;4.83;;;;;;;;;;5046728;28;20460;-80
2023/08/21 08:05:57;;;;;;;12.73;4.70;;;;;;;;;;5045238;28;20466;-80
2023/08/21 08:08:23;;;;;;;8.20;5.03;;;;;;;;;;5044410;28;20459;-81
2023/08/21 08:10:50;;;;;;;9.83;3.80;;;;;;;;;;5042044;28;20988;-80
2023/08/21 08:13:16;;;;;;;5.50;3.90;;;;;;;;;;5041374;28;20476;-81
2023/08/21 08:15:44;;;;;;;7.17;3.60;;;;;;;;;;5044478;28;20439;-80
2023/08/21 08:18:12;;;;;;;9.30;3.57;;;;;;;;;;5043258;28;20827;-81
2023/08/21 08:20:40;;;;;;;10.70;3.50;;;;;;;;;;5043519;28;20452;-81
2023/08/21 08:23:06;;;;;;;5.97;2.97;;;;;;;;;;5046131;28;20475;-80
2023/08/21 08:25:33;;;;;;;8.33;3.87;;;;;;;;;;5041910;28;20477;-80
2023/08/21 08:27:59;;;;;;;12.40;3.20;;;;;;;;;;5042582;28;20531;-80
2023/08/21 08:30:27;;;;;;;7.73;3.10;;;;;;;;;;5042137;28;20472;-80
2023/08/21 08:32:54;;;;;;;6.80;3.27;;;;;;;;;;5046565;28;20549;-80
2023/08/21 08:35:21;;;;;;;12.33;2.50;;;;;;;;;;5043272;28;20473;-81
2023/08/21 08:37:47;;;;;;;3.60;2.17;;;;;;;;;;5043405;28;20837;-81
2023/08/21 08:40:13;;;;;;;3.90;2.37;;;;;;;;;;5048343;28;20486;-81
2023/08/21 08:42:40;;;;;;;5.40;2.20;;;;;;;;;;5044876;28;20477;-80
2023/08/21 08:45:07;;;;;;;5.97;2.30;;;;;;;;;;5042068;28;20472;-81
2023/08/21 08:47:34;;;;;;;5.70;2.60;;;;;;;;;;5045995;28;20464;-80
2023/08/21 08:50:04;;;;;;;7.73;2.03;;;;;;;;;;5042891;28;20473;-80
2023/08/21 08:52:35;;;;;;;4.93;2.13;;;;;;;;;;5046503;28;20472;-81
2023/08/21 08:55:02;;;;;;;3.90;2.50;;;;;;;;;;5042176;28;20471;-81
2023/08/21 08:57:28;;;;;;;5.00;2.10;;;;;;;;;;5043438;28;20826;-81
2023/08/21 08:59:55;;;;;;;3.90;1.83;;;;;;;;;;5044807;28;20993;-81
2023/08/21 09:02:21;;;;;;;9.10;2.97;;;;;;;;;;5045814;28;20463;-81
2023/08/21 09:04:48;;;;;;;5.73;1.90;;;;;;;;;;5045903;28;20575;-80
2023/08/21 09:07:17;;;;;;;3.33;1.70;;;;;;;;;;5052046;28;20444;-79
2023/08/21 09:09:46;;;;;;;4.83;2.27;;;;;;;;;;5051180;28;20472;-78
2023/08/21 09:12:13;;;;;;;5.20;2.53;;;;;;;;;;5051210;28;20542;-78
2023/08/21 09:14:40;;;;;;;8.17;2.13;;;;;;;;;;5050799;28;20472;-79
2023/08/21 09:17:06;;;;;;;6.93;2.20;;;;;;;;;;5051585;28;20462;-78
2023/08/21 09:19:32;;;;;;;3.20;1.60;;;;;;;;;;5050630;28;21100;-79
2023/08/21 09:21:59;;;;;;;2.53;1.47;;;;;;;;;;5051301;28;20483;-78
2023/08/21 09:24:27;;;;;;;2.83;1.90;;;;;;;;;;5048972;28;20832;-79
2023/08/21 09:26:53;;;;;;;5.70;1.50;;;;;;;;;;5054012;28;20455;-78
2023/08/21 09:29:19;;;;;;;2.27;1.60;;;;;;;;;;5053300;28;20468;-79
2023/08/21 09:31:46;;;;;;;2.33;1.40;;;;;;;;;;5051630;28;20467;-79
2023/08/21 09:34:13;;;;;;;4.63;1.93;;;;;;;;;;5050046;28;20467;-79
2023/08/21 09:36:40;;;;;;;5.73;2.00;;;;;;;;;;5054194;28;20460;-79
2023/08/21 09:39:06;;;;;;;3.50;1.70;;;;;;;;;;5049008;28;20464;-79
2023/08/21 09:41:34;;;;;;;3.23;1.93;;;;;;;;;;5050580;28;20815;-79
2023/08/21 09:44:00;;;;;;;8.73;2.47;;;;;;;;;;5047574;28;20846;-78
2023/08/21 09:46:28;;;;;;;4.63;2.37;;;;;;;;;;5050977;28;20435;-79
2023/08/21 09:48:55;;;;;;;3.90;1.60;;;;;;;;;;5049267;28;20468;-78
2023/08/21 09:51:21;;;;;;;3.03;1.70;;;;;;;;;;5051441;28;21027;-78
2023/08/21 09:53:48;;;;;;;2.50;1.40;;;;;;;;;;5051152;28;20474;-78
2023/08/21 09:56:15;;;;;;;4.60;1.70;;;;;;;;;;5050746;28;20447;-78
2023/08/21 09:58:43;;;;;;;4.50;1.90;;;;;;;;;;5051135;28;20482;-79
2023/08/21 10:01:13;;;;;;;2.50;1.40;;;;;;;;;;5048551;28;20555;-78
2023/08/21 10:03:40;;;;;;;5.00;2.03;;;;;;;;;;5048515;28;20465;-78
2023/08/21 10:06:07;;;;;;;5.77;1.80;;;;;;;;;;5051714;28;20505;-79
2023/08/21 10:08:38;;;;;;;3.37;1.40;;;;;;;;;;5048807;28;20994;-79
2023/08/21 10:11:05;;;;;;;4.40;1.80;;;;;;;;;;5050614;28;20467;-78
2023/08/21 10:13:33;;;;;;;3.30;1.40;;;;;;;;;;5052178;28;20464;-79
2023/08/21 10:16:00;;;;;;;4.40;1.60;;;;;;;;;;5051203;28;20431;-78
2023/08/21 10:18:30;;;;;;;3.13;1.37;;;;;;;;;;5045471;28;20450;-78
2023/08/21 10:20:57;;;;;;;3.47;1.67;;;;;;;;;;5043385;28;20550;-79
2023/08/21 10:23:28;;;;;;;5.60;1.77;;;;;;;;;;5049189;28;21023;-79
2023/08/21 10:25:55;;;;;;;4.50;1.90;;;;;;;;;;5044586;28;20475;-78
2023/08/21 10:28:22;;;;;;;4.37;1.63;;;;;;;;;;5047115;28;20465;-79
2023/08/21 10:30:48;;;;;;;2.67;1.40;;;;;;;;;;5049852;28;20941;-79
2023/08/21 10:33:16;;;;;;;2.83;1.50;;;;;;;;;;5048796;28;20471;-78
2023/08/21 10:35:42;;;;;;;3.30;1.97;;;;;;;;;;5044744;28;21362;-78
2023/08/21 10:38:11;;;;;;;5.07;2.10;;;;;;;;;;5046724;28;20476;-79
2023/08/21 10:40:38;;;;;;;3.10;1.73;;;;;;;;;;5045233;28;20518;-78
2023/08/21 10:43:04;;;;;;;3.33;1.80;;;;;;;;;;5046081;28;20849;-78
2023/08/21 10:45:31;;;;;;;2.90;1.67;;;;;;;;;;5045422;28;20471;-78
2023/08/21 10:47:58;;;;;;;2.63;1.60;;;;;;;;;;5046528;28;20444;-79
2023/08/21 10:50:26;;;;;;;3.40;1.50;;;;;;;;;;5048082;28;20479;-79
2023/08/21 10:52:53;;;;;;;2.83;1.50;;;;;;;;;;5045803;28;20477;-79
2023/08/21 10:55:19;;;;;;;1.37;1.27;;;;;;;;;;5046041;28;20475;-79
2023/08/21 10:57:47;;;;;;;2.70;1.77;;;;;;;;;;5045272;28;20555;-78
2023/08/21 11:00:17;;;;;;;2.60;1.67;;;;;;;;;;5044504;28;20467;-78
2023/08/21 11:02:44;;;;;;;3.47;1.43;;;;;;;;;;5050660;28;20666;-78
2023/08/21 11:05:11;;;;;;;4.40;1.97;;;;;;;;;;5044749;28;20464;-79
2023/08/21 11:07:39;;;;;;;6.30;1.63;;;;;;;;;;5045477;28;20445;-78
2023/08/21 11:10:07;;;;;;;1.60;1.50;;;;;;;;;;5049801;28;20483;-78
2023/08/21 11:12:33;;;;;;;2.77;1.30;;;;;;;;;;5044368;28;20495;-78
2023/08/21 11:15:00;;;;;;;2.60;1.30;;;;;;;;;;5043403;28;20461;-79
2023/08/21 11:17:26;;;;;;;3.23;1.67;;;;;;;;;;5047356;28;20470;-78
2023/08/21 11:19:53;;;;;;;3.13;1.90;;;;;;;;;;5044796;28;20480;-78
2023/08/21 11:22:19;;;;;;;1.97;1.47;;;;;;;;;;5044360;28;20468;-78
2023/08/21 11:24:48;;;;;;;3.57;1.47;;;;;;;;;;5045191;28;20496;-79
2023/08/21 11:27:15;;;;;;;2.10;1.67;;;;;;;;;;5045784;28;20464;-78
2023/08/21 11:29:42;;;;;;;2.50;2.00;;;;;;;;;;5046425;28;20982;-78
2023/08/21 11:32:09;;;;;;;6.73;1.63;;;;;;;;;;5045070;28;20469;-78
2023/08/21 11:34:36;;;;;;;4.67;1.70;;;;;;;;;;5044276;28;20518;-78
2023/08/21 11:37:04;;;;;;;6.07;1.97;;;;;;;;;;5045135;28;21015;-78
2023/08/21 11:39:39;;;;;;;2.77;1.27;;;;;;;;;;5045896;28;20463;-79
2023/08/21 11:42:09;;;;;;;4.37;2.17;;;;;;;;;;5044054;28;20470;-79
2023/08/21 11:44:40;;;;;;;3.20;1.40;;;;;;;;;;5046324;28;20486;-79
2023/08/21 11:47:08;;;;;;;2.87;1.30;;;;;;;;;;5045538;28;20440;-79
2023/08/21 11:49:36;;;;;;;1.50;1.40;;;;;;;;;;5046677;28;20480;-78
2023/08/21 11:52:03;;;;;;;5.13;1.87;;;;;;;;;;5046271;28;20498;-78
2023/08/21 11:54:33;;;;;;;2.30;1.60;;;;;;;;;;5045142;28;20511;-79
2023/08/21 11:56:59;;;;;;;3.63;1.60;;;;;;;;;;5045523;28;20463;-78
2023/08/21 11:59:27;;;;;;;2.63;1.67;;;;;;;;;;5044497;28;20845;-78
2023/08/21 12:01:53;;;;;;;4.30;2.30;;;;;;;;;;5044806;28;20846;-79
2023/08/21 12:04:20;;;;;;;4.50;1.90;;;;;;;;;;5044729;28;20468;-78
2023/08/21 12:06:46;;;;;;;1.90;1.33;;;;;;;;;;5045242;28;20462;-78
2023/08/21 12:09:13;;;;;;;3.60;1.60;;;;;;;;;;5047283;28;20483;-78
2023/08/21 12:11:39;;;;;;;1.70;1.30;;;;;;;;;;5045712;28;20444;-78
2023/08/21 12:14:06;;;;;;;4.57;1.70;;;;;;;;;;5047721;28;20476;-78
2023/08/21 12:16:33;;;;;;;3.47;1.73;;;;;;;;;;5044524;28;20459;-78
2023/08/21 12:19:00;;;;;;;2.07;1.70;;;;;;;;;;5044645;28;21003;-79
2023/08/21 12:21:26;;;;;;;4.00;1.47;;;;;;;;;;5044721;28;20448;-79
2023/08/21 12:23:53;;;;;;;2.13;1.40;;;;;;;;;;5045765;28;20472;-79
2023/08/21 12:26:20;;;;;;;1.90;1.23;;;;;;;;;;5046145;28;21001;-79
2023/08/21 12:28:48;;;;;;;4.53;2.00;;;;;;;;;;5046546;28;20950;-79
2023/08/21 12:31:16;;;;;;;2.40;1.53;;;;;;;;;;5046155;28;20451;-78
2023/08/21 12:33:44;;;;;;;4.43;1.70;;;;;;;;;;5045788;28;21004;-79
2023/08/21 12:36:10;;;;;;;4.13;1.70;;;;;;;;;;5044752;28;20460;-78
2023/08/21 12:38:36;;;;;;;3.23;2.10;;;;;;;;;;5046868;28;20472;-79
2023/08/21 12:41:03;;;;;;;1.70;1.60;;;;;;;;;;5045048;28;20463;-78
2023/08/21 12:43:29;;;;;;;4.17;2.10;;;;;;;;;;5045324;28;20795;-79
2023/08/21 12:45:56;;;;;;;3.27;1.73;;;;;;;;;;5041639;28;20480;-79
2023/08/21 12:48:22;;;;;;;3.63;1.90;;;;;;;;;;5043063;28;20450;-78
2023/08/21 12:50:50;;;;;;;3.97;1.33;;;;;;;;;;5039841;28;20444;-78
2023/08/21 12:53:16;;;;;;;2.33;1.50;;;;;;;;;;5043770;28;20869;-79
2023/08/21 12:55:43;;;;;;;3.87;1.80;;;;;;;;;;5044651;28;20444;-78
2023/08/21 12:58:09;;;;;;;2.77;1.87;;;;;;;;;;5044542;28;20883;-79
2023/08/21 13:00:36;;;;;;;3.13;1.60;;;;;;;;;;5045692;28;20822;-79
2023/08/21 13:03:03;;;;;;;5.80;2.37;;;;;;;;;;5043602;28;20481;-79
2023/08/21 13:05:29;;;;;;;3.10;1.50;;;;;;;;;;5043551;28;21021;-78
2023/08/21 13:07:57;;;;;;;6.03;2.40;;;;;;;;;;5043582;28;20444;-78
2023/08/21 13:10:24;;;;;;;4.40;2.00;;;;;;;;;;5043860;28;20469;-79
2023/08/21 13:12:51;;;;;;;2.80;1.80;;;;;;;;;;5044024;28;20486;-78
2023/08/21 13:15:18;;;;;;;3.07;1.73;;;;;;;;;;5042813;28;20897;-79
2023/08/21 13:17:46;;;;;;;3.23;1.50;;;;;;;;;;5042516;28;20459;-78
2023/08/21 13:20:12;;;;;;;4.50;1.80;;;;;;;;;;5046719;28;20570;-79
2023/08/21 13:22:45;;;;;;;2.90;1.87;;;;;;;;;;5042534;28;20994;-78
2023/08/21 13:25:13;;;;;;;3.03;1.47;;;;;;;;;;5042335;28;20568;-79
2023/08/21 13:27:40;;;;;;;3.73;1.73;;;;;;;;;;5044674;28;20459;-79
2023/08/21 13:30:08;;;;;;;2.43;1.20;;;;;;;;;;5045283;28;20468;-78
2023/08/21 13:32:34;;;;;;;2.70;1.80;;;;;;;;;;5044775;28;20562;-79
2023/08/21 13:35:00;;;;;;;3.50;1.57;;;;;;;;;;5041620;28;20476;-78
2023/08/21 13:37:27;;;;;;;1.87;1.67;;;;;;;;;;5044666;28;20452;-79
2023/08/21 13:39:54;;;;;;;2.50;1.67;;;;;;;;;;5040170;28;20467;-78
2023/08/21 13:42:22;;;;;;;2.47;2.07;;;;;;;;;;5042276;28;20476;-79
2023/08/21 13:44:49;;;;;;;2.83;1.90;;;;;;;;;;5044317;28;20485;-79
2023/08/21 13:47:15;;;;;;;5.23;1.80;;;;;;;;;;5043852;28;20448;-79
2023/08/21 13:49:42;;;;;;;2.70;1.70;;;;;;;;;;5045367;28;20472;-78
2023/08/21 13:52:08;;;;;;;3.53;2.00;;;;;;;;;;5045716;28;20472;-79
2023/08/21 13:54:35;;;;;;;2.50;1.90;;;;;;;;;;5045519;28;20480;-79
2023/08/21 13:57:01;;;;;;;2.27;1.60;;;;;;;;;;5046695;28;20453;-79
2023/08/21 13:59:29;;;;;;;5.50;1.80;;;;;;;;;;5044612;28;20525;-78
2023/08/21 14:01:55;;;;;;;3.07;1.87;;;;;;;;;;5047611;28;20476;-78
2023/08/21 14:04:21;;;;;;;4.40;2.00;;;;;;;;;;5045845;28;20498;-79
2023/08/21 14:06:48;;;;;;;2.20;1.50;;;;;;;;;;5048535;28;20487;-78
2023/08/21 14:09:16;;;;;;;4.17;1.90;;;;;;;;;;5044184;28;20526;-79
2023/08/21 14:11:43;;;;;;;3.27;1.60;;;;;;;;;;5044283;28;20843;-79
2023/08/21 14:14:09;;;;;;;5.30;1.60;;;;;;;;;;5048980;28;20472;-78
2023/08/21 14:16:37;;;;;;;2.57;1.77;;;;;;;;;;5049345;28;20806;-78
2023/08/21 14:19:03;;;;;;;4.53;1.93;;;;;;;;;;5049446;28;20476;-79
2023/08/21 14:21:30;;;;;;;4.00;1.73;;;;;;;;;;5046891;28;20447;-79
2023/08/21 14:23:56;;;;;;;2.70;1.63;;;;;;;;;;5047642;28;20468;-79
2023/08/21 14:26:22;;;;;;;1.83;1.73;;;;;;;;;;5047420;28;20486;-78
2023/08/21 14:28:51;;;;;;;4.67;2.00;;;;;;;;;;5046690;28;20472;-79
2023/08/21 14:31:17;;;;;;;5.13;1.93;;;;;;;;;;5044500;28;20467;-79
2023/08/21 14:33:45;;;;;;;2.37;1.73;;;;;;;;;;5044356;28;20471;-79